sensor_id;sensor_type;location;lat;lon;timestamp;pressure;altitude;pressure_sealevel;temperature;humidity
7018;BME280;3549;42.162;24.726;2023-04-06T00:00:36;47638.25;;;-141.97;81.38
7018;BME280;3549;42.162;24.726;2023-04-06T00:03:01;47728.59;;;-141.97;81.01
7018;BME280;3549;42.162;24.726;2023-04-06T00:05:27;47807.41;;;-141.97;81.34
7018;BME280;3549;42.162;24.726;2023-04-06T00:07:55;47722.81;;;-141.97;81.33
7018;BME280;3549;42.162;24.726;2023-04-06T00:10:21;47649.78;;;-141.97;81.65
7018;BME280;3549;42.162;24.726;2023-04-06T00:12:46;47757.41;;;-141.97;81.44
7018;BME280;3549;42.162;24.726;2023-04-06T00:15:11;47695.91;;;-141.97;81.82
7018;BME280;3549;42.162;24.726;2023-04-06T00:17:37;47680.53;;;-141.97;81.91
7018;BME280;3549;42.162;24.726;2023-04-06T00:20:03;47866.97;;;-141.97;82.27
7018;BME280;3549;42.162;24.726;2023-04-06T00:22:28;47876.59;;;-141.97;82.58
7018;BME280;3549;42.162;24.726;2023-04-06T00:24:53;47686.31;;;-141.97;82.72
7018;BME280;3549;42.162;24.726;2023-04-06T00:27:19;47738.19;;;-141.97;82.45
7018;BME280;3549;42.162;24.726;2023-04-06T00:29:45;47638.25;;;-141.97;83.31
7018;BME280;3549;42.162;24.726;2023-04-06T00:32:10;47722.81;;;-141.97;83.11
7018;BME280;3549;42.162;24.726;2023-04-06T00:34:35;47734.34;;;-141.97;83.37
7018;BME280;3549;42.162;24.726;2023-04-06T00:37:01;47799.72;;;-141.97;83.50
7018;BME280;3549;42.162;24.726;2023-04-06T00:39:26;47726.66;;;-141.97;83.83
7018;BME280;3549;42.162;24.726;2023-04-06T00:41:52;47845.84;;;-141.97;83.39
7018;BME280;3549;42.162;24.726;2023-04-06T00:44:19;47659.38;;;-141.97;83.42
7018;BME280;3549;42.162;24.726;2023-04-06T00:46:45;47776.63;;;-141.97;83.79
7018;BME280;3549;42.162;24.726;2023-04-06T00:49:10;47732.44;;;-141.97;83.59
7018;BME280;3549;42.162;24.726;2023-04-06T00:51:36;47761.25;;;-141.97;83.73
7018;BME280;3549;42.162;24.726;2023-04-06T00:54:02;47792.03;;;-141.97;83.96
7018;BME280;3549;42.162;24.726;2023-04-06T00:56:27;47767.03;;;-141.97;83.79
7018;BME280;3549;42.162;24.726;2023-04-06T00:58:53;47665.16;;;-141.97;83.69
7018;BME280;3549;42.162;24.726;2023-04-06T01:01:18;47772.78;;;-141.97;83.92
7018;BME280;3549;42.162;24.726;2023-04-06T01:03:45;47703.59;;;-141.97;83.40
7018;BME280;3549;42.162;24.726;2023-04-06T01:06:14;47680.53;;;-141.97;83.35
7018;BME280;3549;42.162;24.726;2023-04-06T01:08:40;47638.25;;;-141.97;83.68
7018;BME280;3549;42.162;24.726;2023-04-06T01:11:05;47678.63;;;-141.97;83.63
7018;BME280;3549;42.162;24.726;2023-04-06T01:13:30;47811.25;;;-141.97;83.83
7018;BME280;3549;42.162;24.726;2023-04-06T01:15:56;47707.44;;;-141.97;83.87
7018;BME280;3549;42.162;24.726;2023-04-06T01:18:28;47757.41;;;-141.97;83.92
7018;BME280;3549;42.162;24.726;2023-04-06T01:20:54;47801.63;;;-141.97;84.22
7018;BME280;3549;42.162;24.726;2023-04-06T01:23:20;47834.31;;;-141.97;84.14
7018;BME280;3549;42.162;24.726;2023-04-06T01:25:45;47742.03;;;-141.97;84.49
7018;BME280;3549;42.162;24.726;2023-04-06T01:28:11;47803.56;;;-141.97;84.58
7018;BME280;3549;42.162;24.726;2023-04-06T01:30:36;47701.69;;;-141.97;84.33
7018;BME280;3549;42.162;24.726;2023-04-06T01:33:02;47707.44;;;-141.97;84.87
7018;BME280;3549;42.162;24.726;2023-04-06T01:35:28;47718.97;;;-141.97;85.01
7018;BME280;3549;42.162;24.726;2023-04-06T01:37:53;47734.34;;;-141.97;85.22
7018;BME280;3549;42.162;24.726;2023-04-06T01:40:18;47699.75;;;-141.97;84.81
7018;BME280;3549;42.162;24.726;2023-04-06T01:42:44;47734.34;;;-141.97;85.38
7018;BME280;3549;42.162;24.726;2023-04-06T01:45:10;47684.38;;;-141.97;85.15
7018;BME280;3549;42.162;24.726;2023-04-06T01:47:35;47826.63;;;-141.97;85.47
7018;BME280;3549;42.162;24.726;2023-04-06T01:50:01;47718.97;;;-141.97;85.37
7018;BME280;3549;42.162;24.726;2023-04-06T01:52:28;47734.34;;;-141.97;85.44
7018;BME280;3549;42.162;24.726;2023-04-06T01:54:53;47730.50;;;-141.97;85.63
7018;BME280;3549;42.162;24.726;2023-04-06T01:57:19;47738.19;;;-141.97;85.39
7018;BME280;3549;42.162;24.726;2023-04-06T01:59:45;47736.28;;;-141.97;84.81
7018;BME280;3549;42.162;24.726;2023-04-06T02:02:10;47817.00;;;-141.97;84.94
7018;BME280;3549;42.162;24.726;2023-04-06T02:04:38;47763.19;;;-141.97;85.21
7018;BME280;3549;42.162;24.726;2023-04-06T02:07:03;47799.72;;;-141.97;84.83
7018;BME280;3549;42.162;24.726;2023-04-06T02:09:29;47768.94;;;-141.97;84.66
7018;BME280;3549;42.162;24.726;2023-04-06T02:11:54;47830.47;;;-141.97;84.83
7018;BME280;3549;42.162;24.726;2023-04-06T02:14:23;47770.88;;;-141.97;84.73
7018;BME280;3549;42.162;24.726;2023-04-06T02:16:48;47782.41;;;-141.97;84.67
7018;BME280;3549;42.162;24.726;2023-04-06T02:19:14;47805.47;;;-141.97;85.07
7018;BME280;3549;42.162;24.726;2023-04-06T02:21:39;47772.78;;;-141.97;84.74
7018;BME280;3549;42.162;24.726;2023-04-06T02:24:05;47765.09;;;-141.97;84.87
7018;BME280;3549;42.162;24.726;2023-04-06T02:26:31;47772.78;;;-141.97;85.04
7018;BME280;3549;42.162;24.726;2023-04-06T02:28:56;47669.00;;;-141.97;84.80
7018;BME280;3549;42.162;24.726;2023-04-06T02:31:22;47757.41;;;-141.97;84.86
7018;BME280;3549;42.162;24.726;2023-04-06T02:33:47;47718.97;;;-141.97;84.79
7018;BME280;3549;42.162;24.726;2023-04-06T02:36:13;47838.16;;;-141.97;84.72
7018;BME280;3549;42.162;24.726;2023-04-06T02:38:38;47680.53;;;-141.97;84.98
7018;BME280;3549;42.162;24.726;2023-04-06T02:41:03;47720.91;;;-141.97;84.98
7018;BME280;3549;42.162;24.726;2023-04-06T02:43:29;47753.56;;;-141.97;85.49
7018;BME280;3549;42.162;24.726;2023-04-06T02:45:54;47757.41;;;-141.97;85.45
7018;BME280;3549;42.162;24.726;2023-04-06T02:48:20;47818.94;;;-141.97;85.60
7018;BME280;3549;42.162;24.726;2023-04-06T02:50:45;47707.44;;;-141.97;85.73
7018;BME280;3549;42.162;24.726;2023-04-06T02:53:11;47728.59;;;-141.97;85.96
7018;BME280;3549;42.162;24.726;2023-04-06T02:55:36;47870.81;;;-141.97;85.79
7018;BME280;3549;42.162;24.726;2023-04-06T02:58:02;47742.03;;;-141.97;86.14
7018;BME280;3549;42.162;24.726;2023-04-06T03:00:27;47818.94;;;-141.97;86.29
7018;BME280;3549;42.162;24.726;2023-04-06T03:02:52;47715.13;;;-141.97;86.35
7018;BME280;3549;42.162;24.726;2023-04-06T03:05:18;47868.91;;;-141.97;86.40
7018;BME280;3549;42.162;24.726;2023-04-06T03:07:43;47747.81;;;-141.97;86.58
7018;BME280;3549;42.162;24.726;2023-04-06T03:10:09;47761.25;;;-141.97;86.58
7018;BME280;3549;42.162;24.726;2023-04-06T03:12:35;47805.47;;;-141.97;86.64
7018;BME280;3549;42.162;24.726;2023-04-06T03:15:00;47780.47;;;-141.97;86.66
7018;BME280;3549;42.162;24.726;2023-04-06T03:17:25;47718.97;;;-141.97;86.85
7018;BME280;3549;42.162;24.726;2023-04-06T03:19:51;47761.25;;;-141.97;87.12
7018;BME280;3549;42.162;24.726;2023-04-06T03:22:16;47649.78;;;-141.97;86.86
7018;BME280;3549;42.162;24.726;2023-04-06T03:24:42;47743.97;;;-141.97;86.97
7018;BME280;3549;42.162;24.726;2023-04-06T03:27:07;47822.78;;;-141.97;86.45
7018;BME280;3549;42.162;24.726;2023-04-06T03:29:32;47738.19;;;-141.97;86.66
7018;BME280;3549;42.162;24.726;2023-04-06T03:31:58;47682.47;;;-141.97;86.31
7018;BME280;3549;42.162;24.726;2023-04-06T03:34:23;47661.31;;;-141.97;86.54
7018;BME280;3549;42.162;24.726;2023-04-06T03:36:49;47667.06;;;-141.97;86.31
7018;BME280;3549;42.162;24.726;2023-04-06T03:39:15;47682.47;;;-141.97;86.20
7018;BME280;3549;42.162;24.726;2023-04-06T03:41:40;47684.38;;;-141.97;86.23
7018;BME280;3549;42.162;24.726;2023-04-06T03:44:06;47738.19;;;-141.97;85.68
7018;BME280;3549;42.162;24.726;2023-04-06T03:46:31;47830.47;;;-141.97;85.69
7018;BME280;3549;42.162;24.726;2023-04-06T03:48:56;47699.75;;;-141.97;85.58
7018;BME280;3549;42.162;24.726;2023-04-06T03:51:22;47743.97;;;-141.97;85.60
7018;BME280;3549;42.162;24.726;2023-04-06T03:53:47;47695.91;;;-141.97;85.52
7018;BME280;3549;42.162;24.726;2023-04-06T03:56:13;47676.69;;;-141.97;85.72
7018;BME280;3549;42.162;24.726;2023-04-06T03:58:38;47703.59;;;-141.97;85.45
7018;BME280;3549;42.162;24.726;2023-04-06T04:01:04;47815.09;;;-141.97;85.28
7018;BME280;3549;42.162;24.726;2023-04-06T04:03:29;47755.50;;;-141.97;85.16
7018;BME280;3549;42.162;24.726;2023-04-06T04:05:54;47703.59;;;-141.97;85.59
7018;BME280;3549;42.162;24.726;2023-04-06T04:08:20;47699.75;;;-141.97;85.43
7018;BME280;3549;42.162;24.726;2023-04-06T04:10:46;47830.47;;;-141.97;85.27
7018;BME280;3549;42.162;24.726;2023-04-06T04:13:11;47817.00;;;-141.97;84.88
7018;BME280;3549;42.162;24.726;2023-04-06T04:15:36;47732.44;;;-141.97;84.51
7018;BME280;3549;42.162;24.726;2023-04-06T04:18:02;47790.09;;;-141.97;84.38
7018;BME280;3549;42.162;24.726;2023-04-06T04:20:27;47861.22;;;-141.97;83.71
7018;BME280;3549;42.162;24.726;2023-04-06T04:22:53;47651.69;;;-141.97;83.62
7018;BME280;3549;42.162;24.726;2023-04-06T04:25:19;47817.00;;;-141.97;83.19
7018;BME280;3549;42.162;24.726;2023-04-06T04:27:44;47857.38;;;-141.97;82.86
7018;BME280;3549;42.162;24.726;2023-04-06T04:30:10;47813.16;;;-141.97;82.93
7018;BME280;3549;42.162;24.726;2023-04-06T04:32:35;47761.25;;;-141.97;82.30
7018;BME280;3549;42.162;24.726;2023-04-06T04:35:01;47861.22;;;-141.97;82.37
7018;BME280;3549;42.162;24.726;2023-04-06T04:37:26;47863.13;;;-141.97;82.18
7018;BME280;3549;42.162;24.726;2023-04-06T04:39:52;47713.22;;;-141.97;82.50
7018;BME280;3549;42.162;24.726;2023-04-06T04:42:17;47755.50;;;-141.97;82.16
7018;BME280;3549;42.162;24.726;2023-04-06T04:44:42;47728.59;;;-141.97;82.10
7018;BME280;3549;42.162;24.726;2023-04-06T04:47:08;47699.75;;;-141.97;82.63
7018;BME280;3549;42.162;24.726;2023-04-06T04:49:33;47703.59;;;-141.97;82.25
7018;BME280;3549;42.162;24.726;2023-04-06T04:51:59;47851.59;;;-141.97;82.21
7018;BME280;3549;42.162;24.726;2023-04-06T04:54:24;47688.22;;;-141.97;82.11
7018;BME280;3549;42.162;24.726;2023-04-06T04:56:50;47857.38;;;-141.97;82.19
7018;BME280;3549;42.162;24.726;2023-04-06T04:59:15;47609.41;;;-141.97;82.03
7018;BME280;3549;42.162;24.726;2023-04-06T05:01:41;47793.94;;;-141.97;81.98
7018;BME280;3549;42.162;24.726;2023-04-06T05:04:06;47682.47;;;-141.97;82.27
7018;BME280;3549;42.162;24.726;2023-04-06T05:06:32;47676.69;;;-141.97;81.46
7018;BME280;3549;42.162;24.726;2023-04-06T05:08:57;47669.00;;;-141.97;81.23
7018;BME280;3549;42.162;24.726;2023-04-06T05:11:23;47694.00;;;-141.97;81.66
7018;BME280;3549;42.162;24.726;2023-04-06T05:13:48;47670.91;;;-141.97;81.49
7018;BME280;3549;42.162;24.726;2023-04-06T05:16:14;47738.19;;;-141.97;81.54
7018;BME280;3549;42.162;24.726;2023-04-06T05:18:39;47795.88;;;-141.97;80.41
7018;BME280;3549;42.162;24.726;2023-04-06T05:21:05;47749.72;;;-141.97;80.15
7018;BME280;3549;42.162;24.726;2023-04-06T05:23:30;47726.66;;;-141.97;79.81
7018;BME280;3549;42.162;24.726;2023-04-06T05:25:56;47838.16;;;-141.97;79.60
7018;BME280;3549;42.162;24.726;2023-04-06T05:28:21;47757.41;;;-141.97;79.15
7018;BME280;3549;42.162;24.726;2023-04-06T05:30:47;47711.28;;;-141.97;79.03
7018;BME280;3549;42.162;24.726;2023-04-06T05:33:12;47830.47;;;-141.97;78.73
7018;BME280;3549;42.162;24.726;2023-04-06T05:35:38;47734.34;;;-141.97;78.60
7018;BME280;3549;42.162;24.726;2023-04-06T05:38:07;47778.56;;;-141.97;78.41
7018;BME280;3549;42.162;24.726;2023-04-06T05:40:33;47765.09;;;-141.97;78.10
7018;BME280;3549;42.162;24.726;2023-04-06T05:42:58;47782.41;;;-141.97;77.57
7018;BME280;3549;42.162;24.726;2023-04-06T05:45:24;47772.78;;;-141.97;77.62
7018;BME280;3549;42.162;24.726;2023-04-06T05:47:50;47732.44;;;-141.97;77.68
7018;BME280;3549;42.162;24.726;2023-04-06T05:50:15;47745.88;;;-141.97;77.33
7018;BME280;3549;42.162;24.726;2023-04-06T05:52:41;47688.22;;;-141.97;77.87
7018;BME280;3549;42.162;24.726;2023-04-06T05:55:08;47734.34;;;-141.97;77.19
7018;BME280;3549;42.162;24.726;2023-04-06T05:57:34;47661.31;;;-141.97;76.77
7018;BME280;3549;42.162;24.726;2023-04-06T06:00:00;47807.41;;;-141.97;76.59
7018;BME280;3549;42.162;24.726;2023-04-06T06:02:25;47815.09;;;-141.97;76.50
7018;BME280;3549;42.162;24.726;2023-04-06T06:04:51;47874.69;;;-141.97;76.42
7018;BME280;3549;42.162;24.726;2023-04-06T06:07:16;47686.31;;;-141.97;75.94
7018;BME280;3549;42.162;24.726;2023-04-06T06:09:42;47788.19;;;-141.97;75.85
7018;BME280;3549;42.162;24.726;2023-04-06T06:12:07;47782.41;;;-141.97;75.67
7018;BME280;3549;42.162;24.726;2023-04-06T06:14:33;47807.41;;;-141.97;75.97
7018;BME280;3549;42.162;24.726;2023-04-06T06:16:59;47692.06;;;-141.97;75.15
7018;BME280;3549;42.162;24.726;2023-04-06T06:19:25;47730.50;;;-141.97;75.76
7018;BME280;3549;42.162;24.726;2023-04-06T06:21:50;47715.13;;;-141.97;75.09
7018;BME280;3549;42.162;24.726;2023-04-06T06:24:15;47765.09;;;-141.97;74.89
7018;BME280;3549;42.162;24.726;2023-04-06T06:26:41;47670.91;;;-141.97;74.78
7018;BME280;3549;42.162;24.726;2023-04-06T06:29:07;47732.44;;;-141.97;73.90
7018;BME280;3549;42.162;24.726;2023-04-06T06:31:32;47793.94;;;-141.97;74.02
7018;BME280;3549;42.162;24.726;2023-04-06T06:33:58;47713.22;;;-141.97;73.12
7018;BME280;3549;42.162;24.726;2023-04-06T06:36:25;47759.34;;;-141.97;72.93
7018;BME280;3549;42.162;24.726;2023-04-06T06:38:51;47680.53;;;-141.97;72.69
7018;BME280;3549;42.162;24.726;2023-04-06T06:41:16;47788.19;;;-141.97;72.30
7018;BME280;3549;42.162;24.726;2023-04-06T06:43:42;47880.44;;;-141.97;72.48
7018;BME280;3549;42.162;24.726;2023-04-06T06:46:09;47865.06;;;-141.97;71.96
7018;BME280;3549;42.162;24.726;2023-04-06T06:48:34;47847.75;;;-141.97;71.71
7018;BME280;3549;42.162;24.726;2023-04-06T06:51:00;47724.75;;;-141.97;72.28
7018;BME280;3549;42.162;24.726;2023-04-06T06:53:25;47842.00;;;-141.97;71.35
7018;BME280;3549;42.162;24.726;2023-04-06T06:55:51;47792.03;;;-141.97;71.69
7018;BME280;3549;42.162;24.726;2023-04-06T06:58:19;47807.41;;;-141.97;70.72
7018;BME280;3549;42.162;24.726;2023-04-06T07:00:45;47788.19;;;-141.97;70.94
7018;BME280;3549;42.162;24.726;2023-04-06T07:03:11;47765.09;;;-141.97;70.24
7018;BME280;3549;42.162;24.726;2023-04-06T07:05:57;47738.19;;;-141.97;70.34
7018;BME280;3549;42.162;24.726;2023-04-06T07:08:24;47768.94;;;-141.97;70.57
7018;BME280;3549;42.162;24.726;2023-04-06T07:10:51;47780.47;;;-141.97;70.33
7018;BME280;3549;42.162;24.726;2023-04-06T07:13:23;47667.06;;;-141.97;70.05
7018;BME280;3549;42.162;24.726;2023-04-06T07:15:49;47803.56;;;-141.97;69.42
7018;BME280;3549;42.162;24.726;2023-04-06T07:18:16;47718.97;;;-141.97;69.58
7018;BME280;3549;42.162;24.726;2023-04-06T07:20:41;47799.72;;;-141.97;69.37
7018;BME280;3549;42.162;24.726;2023-04-06T07:23:07;47765.09;;;-141.97;68.93
7018;BME280;3549;42.162;24.726;2023-04-06T07:25:32;47776.63;;;-141.97;68.86
7018;BME280;3549;42.162;24.726;2023-04-06T07:27:58;47734.34;;;-141.97;69.05
7018;BME280;3549;42.162;24.726;2023-04-06T07:30:23;47711.28;;;-141.97;69.05
7018;BME280;3549;42.162;24.726;2023-04-06T07:32:51;47592.13;;;-141.97;68.81
7018;BME280;3549;42.162;24.726;2023-04-06T07:35:16;47838.16;;;-141.97;68.65
7018;BME280;3549;42.162;24.726;2023-04-06T07:37:42;47707.44;;;-141.97;68.65
7018;BME280;3549;42.162;24.726;2023-04-06T07:40:08;47772.78;;;-141.97;68.76
7018;BME280;3549;42.162;24.726;2023-04-06T07:45:09;47680.53;;;-141.97;68.05
7018;BME280;3549;42.162;24.726;2023-04-06T07:47:35;47715.13;;;-141.97;68.02
7018;BME280;3549;42.162;24.726;2023-04-06T07:50:00;47590.19;;;-141.97;68.44
7018;BME280;3549;42.162;24.726;2023-04-06T07:52:26;47626.72;;;-141.97;67.97
7018;BME280;3549;42.162;24.726;2023-04-06T07:54:51;47853.53;;;-141.97;67.98
7018;BME280;3549;42.162;24.726;2023-04-06T07:57:17;47782.41;;;-141.97;67.67
7018;BME280;3549;42.162;24.726;2023-04-06T07:59:43;47611.34;;;-141.97;67.27
7018;BME280;3549;42.162;24.726;2023-04-06T08:02:09;47715.13;;;-141.97;66.97
7018;BME280;3549;42.162;24.726;2023-04-06T08:04:35;47663.22;;;-141.97;67.17
7018;BME280;3549;42.162;24.726;2023-04-06T08:07:00;47661.31;;;-141.97;66.74
7018;BME280;3549;42.162;24.726;2023-04-06T08:09:26;47868.91;;;-141.97;66.30
7018;BME280;3549;42.162;24.726;2023-04-06T08:11:52;47642.09;;;-141.97;66.71
7018;BME280;3549;42.162;24.726;2023-04-06T08:14:17;47765.09;;;-141.97;65.52
7018;BME280;3549;42.162;24.726;2023-04-06T08:16:43;47865.06;;;-141.97;64.30
7018;BME280;3549;42.162;24.726;2023-04-06T08:19:08;47849.69;;;-141.97;64.23
7018;BME280;3549;42.162;24.726;2023-04-06T08:21:37;47793.94;;;-141.97;65.41
7018;BME280;3549;42.162;24.726;2023-04-06T08:24:04;47780.47;;;-141.97;64.69
7018;BME280;3549;42.162;24.726;2023-04-06T08:26:31;47717.06;;;-141.97;64.89
7018;BME280;3549;42.162;24.726;2023-04-06T08:28:56;47688.22;;;-141.97;64.25
7018;BME280;3549;42.162;24.726;2023-04-06T08:31:22;47799.72;;;-141.97;63.44
7018;BME280;3549;42.162;24.726;2023-04-06T08:33:47;47761.25;;;-141.97;63.29
7018;BME280;3549;42.162;24.726;2023-04-06T08:36:14;47759.34;;;-141.97;63.67
7018;BME280;3549;42.162;24.726;2023-04-06T08:38:40;47720.91;;;-141.97;49.46
7018;BME280;3549;42.162;24.726;2023-04-06T08:41:07;47843.91;;;-141.97;49.92
7018;BME280;3549;42.162;24.726;2023-04-06T08:43:56;47842.00;;;-141.97;49.42
7018;BME280;3549;42.162;24.726;2023-04-06T08:46:20;47707.44;;;-141.97;49.27
7018;BME280;3549;42.162;24.726;2023-04-06T08:48:46;47765.09;;;-141.97;49.19
7018;BME280;3549;42.162;24.726;2023-04-06T08:51:15;47707.44;;;-141.97;48.81
7018;BME280;3549;42.162;24.726;2023-04-06T08:53:40;47588.28;;;-141.97;49.28
7018;BME280;3549;42.162;24.726;2023-04-06T08:56:06;47749.72;;;-141.97;48.50
7018;BME280;3549;42.162;24.726;2023-04-06T08:58:39;47644.00;;;-141.97;48.21
7018;BME280;3549;42.162;24.726;2023-04-06T09:01:07;47840.06;;;-141.97;47.66
7018;BME280;3549;42.162;24.726;2023-04-06T09:03:39;47807.41;;;-141.97;47.57
7018;BME280;3549;42.162;24.726;2023-04-06T09:06:06;47649.78;;;-141.97;46.33
7018;BME280;3549;42.162;24.726;2023-04-06T09:08:33;47588.28;;;-141.97;46.27
7018;BME280;3549;42.162;24.726;2023-04-06T09:11:01;47690.16;;;-141.97;47.06
7018;BME280;3549;42.162;24.726;2023-04-06T09:13:27;47792.03;;;-141.97;46.94
7018;BME280;3549;42.162;24.726;2023-04-06T09:16:03;47793.94;;;-141.97;45.22
7018;BME280;3549;42.162;24.726;2023-04-06T09:18:32;47803.56;;;-141.97;45.41
7018;BME280;3549;42.162;24.726;2023-04-06T09:21:03;47661.31;;;-141.97;45.26
7018;BME280;3549;42.162;24.726;2023-04-06T09:23:29;47674.78;;;-141.97;43.91
7018;BME280;3549;42.162;24.726;2023-04-06T09:26:11;47728.59;;;-141.97;44.01
7018;BME280;3549;42.162;24.726;2023-04-06T09:28:51;47911.19;;;-141.97;43.29
7018;BME280;3549;42.162;24.726;2023-04-06T09:31:21;47815.09;;;-141.97;43.57
7018;BME280;3549;42.162;24.726;2023-04-06T09:33:47;47870.81;;;-141.97;43.67
7018;BME280;3549;42.162;24.726;2023-04-06T09:36:13;47726.66;;;-141.97;43.65
7018;BME280;3549;42.162;24.726;2023-04-06T09:38:55;47743.97;;;-141.97;43.93
7018;BME280;3549;42.162;24.726;2023-04-06T09:41:32;47728.59;;;-141.97;44.11
7018;BME280;3549;42.162;24.726;2023-04-06T09:44:24;47786.25;;;-141.97;43.19
7018;BME280;3549;42.162;24.726;2023-04-06T09:46:53;47720.91;;;-141.97;45.14
7018;BME280;3549;42.162;24.726;2023-04-06T09:49:19;47845.84;;;-141.97;44.10
7018;BME280;3549;42.162;24.726;2023-04-06T09:51:47;47830.47;;;-141.97;43.31
7018;BME280;3549;42.162;24.726;2023-04-06T09:54:22;47603.66;;;-141.97;42.25
7018;BME280;3549;42.162;24.726;2023-04-06T09:56:57;47707.44;;;-141.97;42.40
7018;BME280;3549;42.162;24.726;2023-04-06T10:02:15;47649.78;;;-141.97;43.11
7018;BME280;3549;42.162;24.726;2023-04-06T10:04:50;47713.22;;;-141.97;42.11
7018;BME280;3549;42.162;24.726;2023-04-06T10:07:18;47776.63;;;-141.97;43.16
7018;BME280;3549;42.162;24.726;2023-04-06T10:09:45;47755.50;;;-141.97;43.05
7018;BME280;3549;42.162;24.726;2023-04-06T10:12:12;47688.22;;;-141.97;42.81
7018;BME280;3549;42.162;24.726;2023-04-06T10:14:38;47703.59;;;-141.97;42.28
7018;BME280;3549;42.162;24.726;2023-04-06T10:17:04;47745.88;;;-141.97;43.09
7018;BME280;3549;42.162;24.726;2023-04-06T10:19:42;47672.84;;;-141.97;42.35
7018;BME280;3549;42.162;24.726;2023-04-06T10:22:18;47740.13;;;-141.97;42.51
7018;BME280;3549;42.162;24.726;2023-04-06T10:24:48;47743.97;;;-141.97;42.11
7018;BME280;3549;42.162;24.726;2023-04-06T10:27:13;47619.03;;;-141.97;41.76
7018;BME280;3549;42.162;24.726;2023-04-06T10:29:45;47778.56;;;-141.97;42.93
7018;BME280;3549;42.162;24.726;2023-04-06T10:32:12;47724.75;;;-141.97;42.11
7018;BME280;3549;42.162;24.726;2023-04-06T10:34:37;47780.47;;;-141.97;42.28
7018;BME280;3549;42.162;24.726;2023-04-06T10:37:16;47780.47;;;-141.97;41.62
7018;BME280;3549;42.162;24.726;2023-04-06T10:39:53;47749.72;;;-141.97;42.82
7018;BME280;3549;42.162;24.726;2023-04-06T10:42:38;47663.22;;;-141.97;42.84
7018;BME280;3549;42.162;24.726;2023-04-06T10:45:06;47722.81;;;-141.97;41.67
7018;BME280;3549;42.162;24.726;2023-04-06T10:47:40;47838.16;;;-141.97;42.24
7018;BME280;3549;42.162;24.726;2023-04-06T10:50:06;47730.50;;;-141.97;42.23
7018;BME280;3549;42.162;24.726;2023-04-06T10:52:31;47653.63;;;-141.97;41.07
7018;BME280;3549;42.162;24.726;2023-04-06T10:54:57;47665.16;;;-141.97;39.98
7018;BME280;3549;42.162;24.726;2023-04-06T10:57:29;47745.88;;;-141.97;41.05
7018;BME280;3549;42.162;24.726;2023-04-06T10:59:56;47751.66;;;-141.97;39.92
7018;BME280;3549;42.162;24.726;2023-04-06T11:02:21;47692.06;;;-141.97;40.06
7018;BME280;3549;42.162;24.726;2023-04-06T11:04:57;47763.19;;;-141.97;40.11
7018;BME280;3549;42.162;24.726;2023-04-06T11:07:24;47680.53;;;-141.97;40.48
7018;BME280;3549;42.162;24.726;2023-04-06T11:09:50;47678.63;;;-141.97;40.81
7018;BME280;3549;42.162;24.726;2023-04-06T11:12:26;47722.81;;;-141.97;39.78
7018;BME280;3549;42.162;24.726;2023-04-06T11:14:57;47855.44;;;-141.97;39.32
7018;BME280;3549;42.162;24.726;2023-04-06T11:17:30;47807.41;;;-141.97;40.69
7018;BME280;3549;42.162;24.726;2023-04-06T11:19:56;47757.41;;;-141.97;39.65
7018;BME280;3549;42.162;24.726;2023-04-06T11:22:22;47815.09;;;-141.97;40.54
7018;BME280;3549;42.162;24.726;2023-04-06T11:24:47;47826.63;;;-141.97;39.62
7018;BME280;3549;42.162;24.726;2023-04-06T11:27:14;47653.63;;;-141.97;38.85
7018;BME280;3549;42.162;24.726;2023-04-06T11:29:41;47709.38;;;-141.97;39.54
7018;BME280;3549;42.162;24.726;2023-04-06T11:32:07;47795.88;;;-141.97;39.39
7018;BME280;3549;42.162;24.726;2023-04-06T11:34:38;47703.59;;;-141.97;39.43
7018;BME280;3549;42.162;24.726;2023-04-06T11:37:08;47847.75;;;-141.97;39.43
7018;BME280;3549;42.162;24.726;2023-04-06T11:39:47;47705.53;;;-141.97;39.16
7018;BME280;3549;42.162;24.726;2023-04-06T11:42:24;47859.28;;;-141.97;39.05
7018;BME280;3549;42.162;24.726;2023-04-06T11:44:51;47738.19;;;-141.97;39.41
7018;BME280;3549;42.162;24.726;2023-04-06T11:47:18;47768.94;;;-141.97;38.46
7018;BME280;3549;42.162;24.726;2023-04-06T11:49:44;47751.66;;;-141.97;38.21
7018;BME280;3549;42.162;24.726;2023-04-06T11:52:28;47659.38;;;-141.97;38.58
7018;BME280;3549;42.162;24.726;2023-04-06T11:54:55;47807.41;;;-141.97;39.71
7018;BME280;3549;42.162;24.726;2023-04-06T11:57:22;47745.88;;;-141.97;38.72
7018;BME280;3549;42.162;24.726;2023-04-06T11:59:50;47676.69;;;-141.97;38.90
7018;BME280;3549;42.162;24.726;2023-04-06T12:02:16;47626.72;;;-141.97;39.04
7018;BME280;3549;42.162;24.726;2023-04-06T12:04:43;47853.53;;;-141.97;39.33
7018;BME280;3549;42.162;24.726;2023-04-06T12:07:08;47636.31;;;-141.97;38.92
7018;BME280;3549;42.162;24.726;2023-04-06T12:09:34;47830.47;;;-141.97;39.66
7018;BME280;3549;42.162;24.726;2023-04-06T12:12:01;47634.41;;;-141.97;39.34
7018;BME280;3549;42.162;24.726;2023-04-06T12:14:26;47603.66;;;-141.97;39.22
7018;BME280;3549;42.162;24.726;2023-04-06T12:16:52;47713.22;;;-141.97;38.93
7018;BME280;3549;42.162;24.726;2023-04-06T12:19:17;47761.25;;;-141.97;39.88
7018;BME280;3549;42.162;24.726;2023-04-06T12:21:43;47736.28;;;-141.97;39.65
7018;BME280;3549;42.162;24.726;2023-04-06T12:24:08;47730.50;;;-141.97;38.94
7018;BME280;3549;42.162;24.726;2023-04-06T12:26:34;47849.69;;;-141.97;39.82
7018;BME280;3549;42.162;24.726;2023-04-06T12:29:00;47672.84;;;-141.97;39.33
7018;BME280;3549;42.162;24.726;2023-04-06T12:31:32;47688.22;;;-141.97;40.29
7018;BME280;3549;42.162;24.726;2023-04-06T12:33:57;47857.38;;;-141.97;39.74
7018;BME280;3549;42.162;24.726;2023-04-06T12:36:23;47690.16;;;-141.97;38.60
7018;BME280;3549;42.162;24.726;2023-04-06T12:38:49;47661.31;;;-141.97;38.60
7018;BME280;3549;42.162;24.726;2023-04-06T12:41:15;47728.59;;;-141.97;39.90
7018;BME280;3549;42.162;24.726;2023-04-06T12:43:42;47734.34;;;-141.97;39.01
7018;BME280;3549;42.162;24.726;2023-04-06T12:46:08;47726.66;;;-141.97;38.58
7018;BME280;3549;42.162;24.726;2023-04-06T12:48:34;47695.91;;;-141.97;37.74
7018;BME280;3549;42.162;24.726;2023-04-06T12:51:05;47786.25;;;-141.97;37.98
7018;BME280;3549;42.162;24.726;2023-04-06T12:53:31;47674.78;;;-141.97;37.49